sensor_id;sensor_type;location;lat;lon;timestamp;P1;durP1;ratioP1;P2;durP2;ratioP2
22549;SDS011;11441;57.164;-2.120;2023-02-26T00:01:35;4.53;;;1.47;;
22549;SDS011;11441;57.164;-2.120;2023-02-26T00:04:03;5.07;;;1.30;;
22549;SDS011;11441;57.164;-2.120;2023-02-26T00:06:32;6.93;;;1.73;;
22549;SDS011;11441;57.164;-2.120;2023-02-26T00:09:01;9.87;;;2.17;;
22549;SDS011;11441;57.164;-2.120;2023-02-26T00:11:30;6.20;;;2.00;;
22549;SDS011;11441;57.164;-2.120;2023-02-26T00:13:57;5.63;;;1.67;;
22549;SDS011;11441;57.164;-2.120;2023-02-26T00:18:56;7.53;;;1.60;;
22549;SDS011;11441;57.164;-2.120;2023-02-26T00:21:26;4.00;;;1.33;;
22549;SDS011;11441;57.164;-2.120;2023-02-26T00:23:54;7.67;;;1.87;;
22549;SDS011;11441;57.164;-2.120;2023-02-26T00:26:22;5.70;;;1.53;;
22549;SDS011;11441;57.164;-2.120;2023-02-26T00:28:50;6.70;;;1.87;;
22549;SDS011;11441;57.164;-2.120;2023-02-26T00:31:18;7.00;;;1.57;;
22549;SDS011;11441;57.164;-2.120;2023-02-26T00:33:51;11.80;;;2.53;;
22549;SDS011;11441;57.164;-2.120;2023-02-26T00:36:24;6.20;;;1.63;;
22549;SDS011;11441;57.164;-2.120;2023-02-26T00:41:59;5.60;;;1.10;;
22549;SDS011;11441;57.164;-2.120;2023-02-26T00:44:26;6.40;;;1.10;;
22549;SDS011;11441;57.164;-2.120;2023-02-26T00:46:54;7.30;;;1.13;;
22549;SDS011;11441;57.164;-2.120;2023-02-26T00:52:27;3.77;;;1.77;;
22549;SDS011;11441;57.164;-2.120;2023-02-26T00:55:01;6.93;;;1.30;;
22549;SDS011;11441;57.164;-2.120;2023-02-26T00:57:28;7.37;;;1.60;;
22549;SDS011;11441;57.164;-2.120;2023-02-26T00:59:55;5.33;;;1.10;;
22549;SDS011;11441;57.164;-2.120;2023-02-26T01:02:22;6.53;;;1.43;;
22549;SDS011;11441;57.164;-2.120;2023-02-26T01:04:50;10.87;;;2.10;;
22549;SDS011;11441;57.164;-2.120;2023-02-26T01:07:17;7.90;;;1.83;;
22549;SDS011;11441;57.164;-2.120;2023-02-26T01:09:48;6.33;;;1.80;;
22549;SDS011;11441;57.164;-2.120;2023-02-26T01:12:15;4.13;;;1.10;;
22549;SDS011;11441;57.164;-2.120;2023-02-26T01:14:43;3.27;;;0.90;;
22549;SDS011;11441;57.164;-2.120;2023-02-26T01:17:14;7.07;;;1.47;;
22549;SDS011;11441;57.164;-2.120;2023-02-26T01:22:38;3.73;;;1.07;;
22549;SDS011;11441;57.164;-2.120;2023-02-26T01:25:11;3.70;;;0.90;;
22549;SDS011;11441;57.164;-2.120;2023-02-26T01:27:59;2.40;;;0.70;;
22549;SDS011;11441;57.164;-2.120;2023-02-26T01:30:27;4.40;;;1.47;;
22549;SDS011;11441;57.164;-2.120;2023-02-26T01:35:31;6.40;;;1.20;;
22549;SDS011;11441;57.164;-2.120;2023-02-26T01:44:02;6.97;;;1.27;;
22549;SDS011;11441;57.164;-2.120;2023-02-26T01:49:33;3.90;;;0.90;;
22549;SDS011;11441;57.164;-2.120;2023-02-26T01:52:03;5.77;;;1.50;;
22549;SDS011;11441;57.164;-2.120;2023-02-26T01:54:34;4.27;;;1.23;;
22549;SDS011;11441;57.164;-2.120;2023-02-26T01:59:43;8.37;;;1.80;;
22549;SDS011;11441;57.164;-2.120;2023-02-26T02:02:15;5.40;;;1.33;;
22549;SDS011;11441;57.164;-2.120;2023-02-26T02:04:43;5.20;;;1.13;;
22549;SDS011;11441;57.164;-2.120;2023-02-26T02:07:12;7.50;;;1.90;;
22549;SDS011;11441;57.164;-2.120;2023-02-26T02:09:39;5.07;;;1.17;;
22549;SDS011;11441;57.164;-2.120;2023-02-26T02:15:19;7.63;;;2.17;;
22549;SDS011;11441;57.164;-2.120;2023-02-26T02:18:11;2.20;;;1.20;;
22549;SDS011;11441;57.164;-2.120;2023-02-26T02:31:54;5.97;;;1.37;;
22549;SDS011;11441;57.164;-2.120;2023-02-26T02:37:47;4.30;;;1.10;;
22549;SDS011;11441;57.164;-2.120;2023-02-26T02:40:24;5.77;;;1.50;;
22549;SDS011;11441;57.164;-2.120;2023-02-26T02:48:15;4.37;;;1.17;;
22549;SDS011;11441;57.164;-2.120;2023-02-26T02:50:52;6.60;;;1.63;;
22549;SDS011;11441;57.164;-2.120;2023-02-26T02:53:26;6.63;;;1.30;;
22549;SDS011;11441;57.164;-2.120;2023-02-26T02:56:05;5.57;;;1.63;;
22549;SDS011;11441;57.164;-2.120;2023-02-26T02:58:39;3.70;;;1.13;;
22549;SDS011;11441;57.164;-2.120;2023-02-26T03:01:10;8.23;;;1.33;;
22549;SDS011;11441;57.164;-2.120;2023-02-26T03:03:49;9.27;;;1.40;;
22549;SDS011;11441;57.164;-2.120;2023-02-26T03:06:22;8.30;;;1.87;;
22549;SDS011;11441;57.164;-2.120;2023-02-26T03:08:50;4.63;;;1.23;;
22549;SDS011;11441;57.164;-2.120;2023-02-26T03:11:18;3.37;;;1.20;;
22549;SDS011;11441;57.164;-2.120;2023-02-26T03:13:47;5.13;;;1.30;;
22549;SDS011;11441;57.164;-2.120;2023-02-26T03:16:26;4.13;;;1.47;;
22549;SDS011;11441;57.164;-2.120;2023-02-26T03:19:14;4.07;;;1.40;;
22549;SDS011;11441;57.164;-2.120;2023-02-26T03:22:08;4.57;;;1.47;;
22549;SDS011;11441;57.164;-2.120;2023-02-26T03:25:12;8.00;;;1.43;;
22549;SDS011;11441;57.164;-2.120;2023-02-26T03:33:21;5.50;;;1.27;;
22549;SDS011;11441;57.164;-2.120;2023-02-26T03:42:02;8.93;;;1.70;;
22549;SDS011;11441;57.164;-2.120;2023-02-26T03:44:48;12.10;;;1.60;;
22549;SDS011;11441;57.164;-2.120;2023-02-26T03:47:20;9.30;;;1.63;;
22549;SDS011;11441;57.164;-2.120;2023-02-26T03:49:58;5.77;;;1.10;;
22549;SDS011;11441;57.164;-2.120;2023-02-26T03:52:43;7.03;;;1.30;;
22549;SDS011;11441;57.164;-2.120;2023-02-26T03:55:37;6.43;;;1.50;;
22549;SDS011;11441;57.164;-2.120;2023-02-26T03:58:29;7.80;;;1.20;;
22549;SDS011;11441;57.164;-2.120;2023-02-26T04:01:21;4.97;;;1.20;;
22549;SDS011;11441;57.164;-2.120;2023-02-26T04:03:53;7.33;;;1.27;;
22549;SDS011;11441;57.164;-2.120;2023-02-26T04:06:26;14.27;;;2.00;;
22549;SDS011;11441;57.164;-2.120;2023-02-26T04:08:55;2.63;;;1.00;;
22549;SDS011;11441;57.164;-2.120;2023-02-26T04:11:22;9.10;;;1.20;;
22549;SDS011;11441;57.164;-2.120;2023-02-26T04:13:51;5.83;;;1.47;;
22549;SDS011;11441;57.164;-2.120;2023-02-26T04:16:18;9.80;;;1.20;;
22549;SDS011;11441;57.164;-2.120;2023-02-26T04:18:45;5.63;;;1.57;;
22549;SDS011;11441;57.164;-2.120;2023-02-26T04:21:13;5.83;;;1.10;;
22549;SDS011;11441;57.164;-2.120;2023-02-26T04:23:41;8.13;;;1.20;;
22549;SDS011;11441;57.164;-2.120;2023-02-26T04:26:09;8.50;;;1.63;;
22549;SDS011;11441;57.164;-2.120;2023-02-26T04:28:38;9.67;;;1.63;;
22549;SDS011;11441;57.164;-2.120;2023-02-26T04:31:06;9.70;;;1.50;;
22549;SDS011;11441;57.164;-2.120;2023-02-26T04:33:35;5.73;;;1.10;;
22549;SDS011;11441;57.164;-2.120;2023-02-26T04:36:01;5.57;;;1.00;;
22549;SDS011;11441;57.164;-2.120;2023-02-26T04:38:30;4.43;;;1.10;;
22549;SDS011;11441;57.164;-2.120;2023-02-26T04:40:57;7.70;;;1.27;;
22549;SDS011;11441;57.164;-2.120;2023-02-26T04:43:24;5.60;;;1.20;;
22549;SDS011;11441;57.164;-2.120;2023-02-26T04:46:05;7.83;;;1.27;;
22549;SDS011;11441;57.164;-2.120;2023-02-26T04:48:34;7.20;;;1.87;;
22549;SDS011;11441;57.164;-2.120;2023-02-26T04:51:01;4.97;;;1.20;;
22549;SDS011;11441;57.164;-2.120;2023-02-26T04:53:28;4.03;;;1.23;;
22549;SDS011;11441;57.164;-2.120;2023-02-26T04:55:55;4.63;;;1.27;;
22549;SDS011;11441;57.164;-2.120;2023-02-26T04:58:22;4.00;;;1.20;;
22549;SDS011;11441;57.164;-2.120;2023-02-26T05:00:49;10.07;;;1.63;;
22549;SDS011;11441;57.164;-2.120;2023-02-26T05:03:17;3.47;;;0.80;;
22549;SDS011;11441;57.164;-2.120;2023-02-26T05:05:44;7.30;;;1.70;;
22549;SDS011;11441;57.164;-2.120;2023-02-26T05:08:11;5.30;;;1.40;;
22549;SDS011;11441;57.164;-2.120;2023-02-26T05:10:57;7.93;;;1.50;;
22549;SDS011;11441;57.164;-2.120;2023-02-26T05:13:24;4.33;;;1.40;;
22549;SDS011;11441;57.164;-2.120;2023-02-26T05:15:52;8.27;;;1.13;;
22549;SDS011;11441;57.164;-2.120;2023-02-26T05:18:21;6.90;;;1.67;;
22549;SDS011;11441;57.164;-2.120;2023-02-26T05:20:52;5.03;;;1.23;;
22549;SDS011;11441;57.164;-2.120;2023-02-26T05:23:20;7.23;;;1.57;;
22549;SDS011;11441;57.164;-2.120;2023-02-26T05:25:47;1.63;;;0.90;;
22549;SDS011;11441;57.164;-2.120;2023-02-26T05:28:15;5.13;;;1.50;;
22549;SDS011;11441;57.164;-2.120;2023-02-26T05:31:01;6.77;;;1.83;;
22549;SDS011;11441;57.164;-2.120;2023-02-26T05:33:28;6.90;;;1.40;;
22549;SDS011;11441;57.164;-2.120;2023-02-26T05:35:55;6.87;;;1.70;;
22549;SDS011;11441;57.164;-2.120;2023-02-26T05:38:23;9.00;;;1.47;;
22549;SDS011;11441;57.164;-2.120;2023-02-26T05:40:49;9.63;;;1.47;;
22549;SDS011;11441;57.164;-2.120;2023-02-26T05:43:16;7.10;;;1.60;;
22549;SDS011;11441;57.164;-2.120;2023-02-26T05:45:43;9.90;;;1.17;;
22549;SDS011;11441;57.164;-2.120;2023-02-26T05:48:10;4.70;;;1.37;;
22549;SDS011;11441;57.164;-2.120;2023-02-26T05:50:37;6.93;;;1.43;;
22549;SDS011;11441;57.164;-2.120;2023-02-26T05:53:03;11.57;;;1.50;;
22549;SDS011;11441;57.164;-2.120;2023-02-26T05:55:30;8.93;;;1.83;;
22549;SDS011;11441;57.164;-2.120;2023-02-26T05:57:57;12.97;;;1.57;;
22549;SDS011;11441;57.164;-2.120;2023-02-26T06:00:24;6.40;;;1.30;;
22549;SDS011;11441;57.164;-2.120;2023-02-26T06:02:51;5.43;;;1.77;;
22549;SDS011;11441;57.164;-2.120;2023-02-26T06:05:18;4.97;;;1.07;;
22549;SDS011;11441;57.164;-2.120;2023-02-26T06:07:45;11.50;;;1.73;;
22549;SDS011;11441;57.164;-2.120;2023-02-26T06:10:12;8.30;;;1.33;;
22549;SDS011;11441;57.164;-2.120;2023-02-26T06:12:39;10.23;;;1.67;;
22549;SDS011;11441;57.164;-2.120;2023-02-26T06:15:07;5.33;;;1.30;;
22549;SDS011;11441;57.164;-2.120;2023-02-26T06:17:34;7.57;;;1.47;;
22549;SDS011;11441;57.164;-2.120;2023-02-26T06:20:04;8.03;;;1.17;;
22549;SDS011;11441;57.164;-2.120;2023-02-26T06:22:31;5.40;;;0.90;;
22549;SDS011;11441;57.164;-2.120;2023-02-26T06:24:58;6.80;;;0.80;;
22549;SDS011;11441;57.164;-2.120;2023-02-26T06:27:25;8.13;;;2.03;;
22549;SDS011;11441;57.164;-2.120;2023-02-26T06:29:52;3.90;;;1.07;;
22549;SDS011;11441;57.164;-2.120;2023-02-26T06:32:18;6.27;;;1.07;;
22549;SDS011;11441;57.164;-2.120;2023-02-26T06:34:45;8.07;;;1.13;;
22549;SDS011;11441;57.164;-2.120;2023-02-26T06:37:12;8.63;;;1.20;;
22549;SDS011;11441;57.164;-2.120;2023-02-26T06:39:39;1.50;;;0.53;;
22549;SDS011;11441;57.164;-2.120;2023-02-26T06:42:06;10.20;;;1.63;;
22549;SDS011;11441;57.164;-2.120;2023-02-26T06:44:50;2.03;;;0.73;;
22549;SDS011;11441;57.164;-2.120;2023-02-26T06:47:17;5.13;;;1.13;;
22549;SDS011;11441;57.164;-2.120;2023-02-26T06:49:44;9.87;;;1.60;;
22549;SDS011;11441;57.164;-2.120;2023-02-26T06:52:11;5.80;;;1.33;;
22549;SDS011;11441;57.164;-2.120;2023-02-26T06:54:38;5.10;;;1.07;;
22549;SDS011;11441;57.164;-2.120;2023-02-26T06:57:05;3.00;;;0.87;;
22549;SDS011;11441;57.164;-2.120;2023-02-26T06:59:32;10.73;;;1.57;;
22549;SDS011;11441;57.164;-2.120;2023-02-26T07:01:59;1.87;;;1.00;;
22549;SDS011;11441;57.164;-2.120;2023-02-26T07:04:26;3.10;;;0.80;;
22549;SDS011;11441;57.164;-2.120;2023-02-26T07:06:52;6.90;;;0.93;;
22549;SDS011;11441;57.164;-2.120;2023-02-26T07:09:19;6.40;;;0.73;;
22549;SDS011;11441;57.164;-2.120;2023-02-26T07:11:46;1.13;;;0.80;;
22549;SDS011;11441;57.164;-2.120;2023-02-26T07:14:13;4.43;;;1.10;;
22549;SDS011;11441;57.164;-2.120;2023-02-26T07:16:39;3.03;;;0.80;;
22549;SDS011;11441;57.164;-2.120;2023-02-26T07:19:07;5.70;;;0.93;;
22549;SDS011;11441;57.164;-2.120;2023-02-26T07:21:34;7.03;;;1.13;;
22549;SDS011;11441;57.164;-2.120;2023-02-26T07:26:47;3.67;;;1.10;;
22549;SDS011;11441;57.164;-2.120;2023-02-26T07:29:13;4.23;;;0.90;;
22549;SDS011;11441;57.164;-2.120;2023-02-26T07:31:40;6.57;;;1.20;;
22549;SDS011;11441;57.164;-2.120;2023-02-26T07:34:24;4.23;;;0.90;;
22549;SDS011;11441;57.164;-2.120;2023-02-26T07:37:09;3.77;;;1.00;;
22549;SDS011;11441;57.164;-2.120;2023-02-26T07:39:36;4.20;;;0.77;;
22549;SDS011;11441;57.164;-2.120;2023-02-26T07:42:03;4.20;;;1.07;;
22549;SDS011;11441;57.164;-2.120;2023-02-26T07:44:32;6.30;;;1.37;;
22549;SDS011;11441;57.164;-2.120;2023-02-26T07:47:00;7.57;;;1.37;;
22549;SDS011;11441;57.164;-2.120;2023-02-26T07:49:27;5.10;;;1.73;;
22549;SDS011;11441;57.164;-2.120;2023-02-26T07:51:54;6.33;;;1.40;;
22549;SDS011;11441;57.164;-2.120;2023-02-26T07:54:20;3.53;;;0.90;;
22549;SDS011;11441;57.164;-2.120;2023-02-26T07:56:47;5.13;;;1.33;;
22549;SDS011;11441;57.164;-2.120;2023-02-26T07:59:14;7.93;;;1.33;;
22549;SDS011;11441;57.164;-2.120;2023-02-26T08:02:00;2.00;;;0.90;;
22549;SDS011;11441;57.164;-2.120;2023-02-26T08:04:26;6.30;;;1.23;;
22549;SDS011;11441;57.164;-2.120;2023-02-26T08:06:53;6.97;;;1.40;;
22549;SDS011;11441;57.164;-2.120;2023-02-26T08:09:22;3.20;;;1.00;;
22549;SDS011;11441;57.164;-2.120;2023-02-26T08:11:49;7.50;;;1.10;;
22549;SDS011;11441;57.164;-2.120;2023-02-26T08:14:16;10.53;;;1.37;;
22549;SDS011;11441;57.164;-2.120;2023-02-26T08:16:42;5.37;;;0.90;;
22549;SDS011;11441;57.164;-2.120;2023-02-26T08:19:09;5.97;;;1.77;;
22549;SDS011;11441;57.164;-2.120;2023-02-26T08:21:36;5.83;;;1.27;;
22549;SDS011;11441;57.164;-2.120;2023-02-26T08:24:03;3.10;;;0.93;;
22549;SDS011;11441;57.164;-2.120;2023-02-26T08:26:30;5.83;;;0.80;;
22549;SDS011;11441;57.164;-2.120;2023-02-26T08:29:01;4.07;;;0.80;;
22549;SDS011;11441;57.164;-2.120;2023-02-26T08:31:28;4.17;;;1.00;;
22549;SDS011;11441;57.164;-2.120;2023-02-26T08:34:15;2.10;;;0.70;;
22549;SDS011;11441;57.164;-2.120;2023-02-26T08:36:42;8.70;;;1.10;;
22549;SDS011;11441;57.164;-2.120;2023-02-26T08:39:09;4.50;;;1.10;;
22549;SDS011;11441;57.164;-2.120;2023-02-26T08:41:35;5.27;;;1.20;;
22549;SDS011;11441;57.164;-2.120;2023-02-26T08:46:48;4.00;;;1.37;;
22549;SDS011;11441;57.164;-2.120;2023-02-26T08:49:15;3.57;;;1.30;;
22549;SDS011;11441;57.164;-2.120;2023-02-26T08:51:41;6.80;;;1.10;;
22549;SDS011;11441;57.164;-2.120;2023-02-26T08:54:08;7.13;;;1.47;;
22549;SDS011;11441;57.164;-2.120;2023-02-26T08:56:35;7.23;;;1.80;;
22549;SDS011;11441;57.164;-2.120;2023-02-26T08:59:21;6.33;;;1.10;;
22549;SDS011;11441;57.164;-2.120;2023-02-26T09:01:48;4.60;;;1.00;;
22549;SDS011;11441;57.164;-2.120;2023-02-26T09:04:15;7.50;;;2.17;;
22549;SDS011;11441;57.164;-2.120;2023-02-26T09:06:41;3.53;;;1.00;;
22549;SDS011;11441;57.164;-2.120;2023-02-26T09:09:08;6.97;;;1.60;;
22549;SDS011;11441;57.164;-2.120;2023-02-26T09:11:35;4.93;;;1.10;;
22549;SDS011;11441;57.164;-2.120;2023-02-26T09:14:03;4.20;;;1.23;;
22549;SDS011;11441;57.164;-2.120;2023-02-26T09:16:30;4.80;;;1.30;;
22549;SDS011;11441;57.164;-2.120;2023-02-26T09:18:57;7.67;;;1.50;;
22549;SDS011;11441;57.164;-2.120;2023-02-26T09:21:41;5.27;;;1.70;;
22549;SDS011;11441;57.164;-2.120;2023-02-26T09:24:10;6.60;;;1.70;;
22549;SDS011;11441;57.164;-2.120;2023-02-26T09:26:37;10.50;;;2.07;;
22549;SDS011;11441;57.164;-2.120;2023-02-26T09:29:03;6.13;;;1.30;;
22549;SDS011;11441;57.164;-2.120;2023-02-26T09:31:30;6.53;;;1.07;;
22549;SDS011;11441;57.164;-2.120;2023-02-26T09:33:58;3.17;;;1.20;;
22549;SDS011;11441;57.164;-2.120;2023-02-26T09:36:25;5.40;;;1.23;;
22549;SDS011;11441;57.164;-2.120;2023-02-26T09:38:52;2.90;;;1.10;;
22549;SDS011;11441;57.164;-2.120;2023-02-26T09:41:38;7.10;;;1.20;;
22549;SDS011;11441;57.164;-2.120;2023-02-26T09:44:20;8.10;;;1.30;;
22549;SDS011;11441;57.164;-2.120;2023-02-26T09:52:26;6.17;;;1.20;;
22549;SDS011;11441;57.164;-2.120;2023-02-26T09:58:02;10.60;;;1.30;;
22549;SDS011;11441;57.164;-2.120;2023-02-26T10:00:34;1.70;;;0.93;;
22549;SDS011;11441;57.164;-2.120;2023-02-26T10:03:24;2.77;;;1.10;;
22549;SDS011;11441;57.164;-2.120;2023-02-26T10:14:23;5.93;;;0.90;;
22549;SDS011;11441;57.164;-2.120;2023-02-26T10:16:56;3.80;;;0.60;;
22549;SDS011;11441;57.164;-2.120;2023-02-26T10:19:29;6.43;;;1.30;;
22549;SDS011;11441;57.164;-2.120;2023-02-26T10:22:44;5.33;;;1.17;;
22549;SDS011;11441;57.164;-2.120;2023-02-26T10:30:23;7.20;;;0.60;;
22549;SDS011;11441;57.164;-2.120;2023-02-26T10:33:02;9.23;;;1.40;;
22549;SDS011;11441;57.164;-2.120;2023-02-26T10:35:36;6.67;;;1.30;;
22549;SDS011;11441;57.164;-2.120;2023-02-26T10:38:11;3.77;;;1.37;;
22549;SDS011;11441;57.164;-2.120;2023-02-26T10:40:43;3.87;;;1.00;;
22549;SDS011;11441;57.164;-2.120;2023-02-26T10:43:36;3.93;;;1.17;;
22549;SDS011;11441;57.164;-2.120;2023-02-26T10:51:51;8.47;;;1.03;;
22549;SDS011;11441;57.164;-2.120;2023-02-26T10:54:27;3.20;;;0.70;;
22549;SDS011;11441;57.164;-2.120;2023-02-26T10:56:59;5.13;;;0.93;;
22549;SDS011;11441;57.164;-2.120;2023-02-26T10:59:26;4.93;;;1.33;;
22549;SDS011;11441;57.164;-2.120;2023-02-26T11:01:53;5.87;;;0.83;;
22549;SDS011;11441;57.164;-2.120;2023-02-26T11:04:22;2.67;;;1.17;;
22549;SDS011;11441;57.164;-2.120;2023-02-26T11:06:58;9.80;;;1.93;;
22549;SDS011;11441;57.164;-2.120;2023-02-26T11:09:37;7.00;;;1.27;;
22549;SDS011;11441;57.164;-2.120;2023-02-26T11:14:38;4.10;;;1.00;;
22549;SDS011;11441;57.164;-2.120;2023-02-26T11:17:09;3.50;;;1.60;;
22549;SDS011;11441;57.164;-2.120;2023-02-26T11:19:41;10.20;;;1.97;;
22549;SDS011;11441;57.164;-2.120;2023-02-26T11:22:15;8.83;;;3.87;;
22549;SDS011;11441;57.164;-2.120;2023-02-26T11:24:45;7.17;;;2.43;;
22549;SDS011;11441;57.164;-2.120;2023-02-26T11:27:18;3.93;;;0.77;;
22549;SDS011;11441;57.164;-2.120;2023-02-26T11:30:14;3.60;;;1.20;;
22549;SDS011;11441;57.164;-2.120;2023-02-26T11:32:44;3.50;;;1.00;;
22549;SDS011;11441;57.164;-2.120;2023-02-26T11:35:16;4.37;;;0.80;;
22549;SDS011;11441;57.164;-2.120;2023-02-26T11:37:45;5.20;;;1.27;;
22549;SDS011;11441;57.164;-2.120;2023-02-26T11:40:16;7.00;;;1.57;;
22549;SDS011;11441;57.164;-2.120;2023-02-26T11:45:20;5.13;;;1.13;;
22549;SDS011;11441;57.164;-2.120;2023-02-26T11:47:48;7.23;;;0.90;;
22549;SDS011;11441;57.164;-2.120;2023-02-26T11:50:24;2.30;;;0.63;;
22549;SDS011;11441;57.164;-2.120;2023-02-26T11:52:54;1.73;;;0.50;;
22549;SDS011;11441;57.164;-2.120;2023-02-26T11:55:26;4.47;;;1.00;;
22549;SDS011;11441;57.164;-2.120;2023-02-26T11:57:55;6.87;;;0.80;;
22549;SDS011;11441;57.164;-2.120;2023-02-26T12:00:23;11.30;;;1.80;;
22549;SDS011;11441;57.164;-2.120;2023-02-26T12:03:20;7.43;;;1.10;;
22549;SDS011;11441;57.164;-2.120;2023-02-26T12:05:49;5.47;;;0.93;;
22549;SDS011;11441;57.164;-2.120;2023-02-26T12:22:13;2.20;;;0.80;;
22549;SDS011;11441;57.164;-2.120;2023-02-26T12:35:34;3.20;;;0.80;;
22549;SDS011;11441;57.164;-2.120;2023-02-26T12:41:14;7.13;;;2.50;;
22549;SDS011;11441;57.164;-2.120;2023-02-26T12:43:51;10.67;;;2.10;;
22549;SDS011;11441;57.164;-2.120;2023-02-26T12:46:50;5.90;;;1.60;;
22549;SDS011;11441;57.164;-2.120;2023-02-26T12:52:22;4.13;;;0.77;;
22549;SDS011;11441;57.164;-2.120;2023-02-26T13:00:48;1.77;;;0.88;;
22549;SDS011;11441;57.164;-2.120;2023-02-26T13:05:55;5.95;;;1.17;;
22549;SDS011;11441;57.164;-2.120;2023-02-26T13:17:43;4.68;;;1.10;;
22549;SDS011;11441;57.164;-2.120;2023-02-26T13:20:02;3.65;;;1.05;;
22549;SDS011;11441;57.164;-2.120;2023-02-26T13:22:41;2.92;;;0.55;;
22549;SDS011;11441;57.164;-2.120;2023-02-26T13:28:00;4.85;;;0.73;;
22549;SDS011;11441;57.164;-2.120;2023-02-26T13:30:34;12.05;;;2.95;;
22549;SDS011;11441;57.164;-2.120;2023-02-26T13:33:06;2.77;;;1.17;;
22549;SDS011;11441;57.164;-2.120;2023-02-26T13:35:43;6.73;;;1.27;;
22549;SDS011;11441;57.164;-2.120;2023-02-26T13:51:56;5.18;;;0.75;;
22549;SDS011;11441;57.164;-2.120;2023-02-26T14:04:49;4.40;;;0.50;;
22549;SDS011;11441;57.164;-2.120;2023-02-26T14:13:33;2.83;;;1.30;;
22549;SDS011;11441;57.164;-2.120;2023-02-26T14:16:19;4.07;;;1.30;;
22549;SDS011;11441;57.164;-2.120;2023-02-26T14:19:02;5.18;;;2.20;;
22549;SDS011;11441;57.164;-2.120;2023-02-26T14:21:48;6.80;;;1.40;;
22549;SDS011;11441;57.164;-2.120;2023-02-26T14:24:20;7.22;;;1.80;;
22549;SDS011;11441;57.164;-2.120;2023-02-26T14:27:02;8.27;;;0.70;;
22549;SDS011;11441;57.164;-2.120;2023-02-26T14:34:58;2.40;;;0.82;;
22549;SDS011;11441;57.164;-2.120;2023-02-26T14:37:31;7.43;;;0.70;;
22549;SDS011;11441;57.164;-2.120;2023-02-26T14:40:16;6.03;;;1.38;;
22549;SDS011;11441;57.164;-2.120;2023-02-26T14:42:52;5.47;;;1.00;;
22549;SDS011;11441;57.164;-2.120;2023-02-26T14:45:34;2.50;;;1.42;;
22549;SDS011;11441;57.164;-2.120;2023-02-26T14:48:10;2.30;;;0.52;;
22549;SDS011;11441;57.164;-2.120;2023-02-26T14:50:44;3.75;;;0.65;;
22549;SDS011;11441;57.164;-2.120;2023-02-26T14:53:30;5.82;;;1.17;;
22549;SDS011;11441;57.164;-2.120;2023-02-26T15:15:23;3.37;;;0.63;;
22549;SDS011;11441;57.164;-2.120;2023-02-26T15:18:25;5.70;;;0.77;;
22549;SDS011;11441;57.164;-2.120;2023-02-26T15:24:10;3.60;;;0.80;;
22549;SDS011;11441;57.164;-2.120;2023-02-26T15:26:49;2.50;;;0.97;;
22549;SDS011;11441;57.164;-2.120;2023-02-26T15:29:20;2.40;;;0.90;;
22549;SDS011;11441;57.164;-2.120;2023-02-26T15:31:56;5.63;;;1.67;;
22549;SDS011;11441;57.164;-2.120;2023-02-26T15:34:31;2.03;;;0.67;;
22549;SDS011;11441;57.164;-2.120;2023-02-26T15:36:59;1.73;;;0.95;;
22549;SDS011;11441;57.164;-2.120;2023-02-26T15:39:26;8.87;;;3.23;;
22549;SDS011;11441;57.164;-2.120;2023-02-26T15:41:53;3.70;;;1.40;;
22549;SDS011;11441;57.164;-2.120;2023-02-26T15:44:24;2.73;;;1.10;;
22549;SDS011;11441;57.164;-2.120;2023-02-26T15:47:11;7.93;;;0.90;;
22549;SDS011;11441;57.164;-2.120;2023-02-26T15:49:45;3.33;;;1.13;;
22549;SDS011;11441;57.164;-2.120;2023-02-26T15:52:15;5.43;;;0.95;;
22549;SDS011;11441;57.164;-2.120;2023-02-26T15:54:51;3.10;;;0.93;;
22549;SDS011;11441;57.164;-2.120;2023-02-26T15:57:39;6.97;;;0.80;;
22549;SDS011;11441;57.164;-2.120;2023-02-26T16:00:08;7.10;;;1.33;;
22549;SDS011;11441;57.164;-2.120;2023-02-26T16:02:41;2.72;;;0.88;;
22549;SDS011;11441;57.164;-2.120;2023-02-26T16:05:11;8.97;;;1.63;;
22549;SDS011;11441;57.164;-2.120;2023-02-26T16:07:41;6.00;;;1.00;;
22549;SDS011;11441;57.164;-2.120;2023-02-26T16:10:16;4.20;;;1.60;;
22549;SDS011;11441;57.164;-2.120;2023-02-26T16:12:54;4.83;;;0.87;;
22549;SDS011;11441;57.164;-2.120;2023-02-26T16:15:26;1.17;;;0.50;;
22549;SDS011;11441;57.164;-2.120;2023-02-26T16:17:57;6.13;;;1.20;;
22549;SDS011;11441;57.164;-2.120;2023-02-26T16:20:26;7.68;;;1.00;;
22549;SDS011;11441;57.164;-2.120;2023-02-26T16:23:19;7.13;;;1.20;;
22549;SDS011;11441;57.164;-2.120;2023-02-26T16:28:38;3.90;;;0.80;;
22549;SDS011;11441;57.164;-2.120;2023-02-26T16:31:19;4.65;;;1.25;;
22549;SDS011;11441;57.164;-2.120;2023-02-26T16:33:56;10.07;;;1.80;;
22549;SDS011;11441;57.164;-2.120;2023-02-26T16:36:31;5.90;;;1.07;;
22549;SDS011;11441;57.164;-2.120;2023-02-26T16:41:31;5.10;;;1.17;;
22549;SDS011;11441;57.164;-2.120;2023-02-26T16:44:02;5.20;;;1.38;;
22549;SDS011;11441;57.164;-2.120;2023-02-26T16:49:11;8.20;;;1.17;;
22549;SDS011;11441;57.164;-2.120;2023-02-26T16:52:03;2.67;;;0.60;;
22549;SDS011;11441;57.164;-2.120;2023-02-26T16:54:32;3.10;;;0.93;;
22549;SDS011;11441;57.164;-2.120;2023-02-26T16:57:17;7.67;;;1.23;;
22549;SDS011;11441;57.164;-2.120;2023-02-26T16:59:52;5.30;;;0.90;;
22549;SDS011;11441;57.164;-2.120;2023-02-26T17:02:28;3.87;;;0.70;;
22549;SDS011;11441;57.164;-2.120;2023-02-26T17:04:59;6.13;;;0.87;;
22549;SDS011;11441;57.164;-2.120;2023-02-26T17:07:31;4.17;;;0.50;;
22549;SDS011;11441;57.164;-2.120;2023-02-26T17:10:07;3.00;;;0.90;;
22549;SDS011;11441;57.164;-2.120;2023-02-26T17:12:43;2.10;;;0.60;;
22549;SDS011;11441;57.164;-2.120;2023-02-26T17:15:20;3.77;;;0.90;;
22549;SDS011;11441;57.164;-2.120;2023-02-26T17:20:43;6.30;;;1.40;;
22549;SDS011;11441;57.164;-2.120;2023-02-26T17:23:10;7.80;;;0.90;;
22549;SDS011;11441;57.164;-2.120;2023-02-26T17:25:47;3.73;;;0.60;;
22549;SDS011;11441;57.164;-2.120;2023-02-26T17:28:24;3.47;;;1.03;;
22549;SDS011;11441;57.164;-2.120;2023-02-26T17:30:53;8.13;;;1.90;;
22549;SDS011;11441;57.164;-2.120;2023-02-26T17:33:20;5.93;;;1.50;;
22549;SDS011;11441;57.164;-2.120;2023-02-26T17:35:47;12.90;;;1.93;;
22549;SDS011;11441;57.164;-2.120;2023-02-26T17:38:15;4.03;;;1.80;;
22549;SDS011;11441;57.164;-2.120;2023-02-26T17:40:42;3.53;;;1.27;;
22549;SDS011;11441;57.164;-2.120;2023-02-26T17:43:10;5.07;;;1.37;;
22549;SDS011;11441;57.164;-2.120;2023-02-26T17:45:55;6.53;;;1.10;;
22549;SDS011;11441;57.164;-2.120;2023-02-26T17:48:23;3.00;;;0.70;;
22549;SDS011;11441;57.164;-2.120;2023-02-26T17:53:21;4.30;;;1.20;;
22549;SDS011;11441;57.164;-2.120;2023-02-26T17:55:52;8.83;;;2.10;;
22549;SDS011;11441;57.164;-2.120;2023-02-26T18:00:56;4.23;;;1.40;;
22549;SDS011;11441;57.164;-2.120;2023-02-26T18:06:10;7.23;;;1.37;;
22549;SDS011;11441;57.164;-2.120;2023-02-26T18:08:39;3.77;;;1.10;;
22549;SDS011;11441;57.164;-2.120;2023-02-26T18:11:06;6.47;;;1.13;;
22549;SDS011;11441;57.164;-2.120;2023-02-26T18:13:37;5.40;;;1.37;;
22549;SDS011;11441;57.164;-2.120;2023-02-26T18:16:04;10.40;;;1.93;;
22549;SDS011;11441;57.164;-2.120;2023-02-26T18:18:31;10.93;;;2.73;;
22549;SDS011;11441;57.164;-2.120;2023-02-26T18:20:58;6.37;;;1.80;;
22549;SDS011;11441;57.164;-2.120;2023-02-26T18:23:26;6.73;;;3.43;;
22549;SDS011;11441;57.164;-2.120;2023-02-26T18:25:53;10.57;;;3.97;;
22549;SDS011;11441;57.164;-2.120;2023-02-26T18:28:21;9.20;;;4.10;;
22549;SDS011;11441;57.164;-2.120;2023-02-26T18:30:50;13.33;;;6.00;;
22549;SDS011;11441;57.164;-2.120;2023-02-26T18:33:18;10.33;;;5.97;;
22549;SDS011;11441;57.164;-2.120;2023-02-26T18:35:55;12.63;;;5.23;;
22549;SDS011;11441;57.164;-2.120;2023-02-26T18:38:23;14.70;;;5.37;;
22549;SDS011;11441;57.164;-2.120;2023-02-26T18:40:52;12.27;;;3.90;;
22549;SDS011;11441;57.164;-2.120;2023-02-26T18:43:20;8.10;;;3.23;;
22549;SDS011;11441;57.164;-2.120;2023-02-26T18:45:47;11.03;;;3.50;;
22549;SDS011;11441;57.164;-2.120;2023-02-26T18:48:16;7.30;;;3.87;;